Airfield :
LOGIN :

Register | Disclaimer

   EN    FR    IT 

 










Legend :    VFR   Marginal VFR   IFR   Intensive IFR   Very Intensive IFR
Visi :
Ceiling :
>= 8 km
>= 3000ft
5 to 8 km
1000 to 3000 ft
1500m to 5 km
500 to 1000 ft
800 to 1500m
200 to 500 ft
< 800m
< 200 ft
Symbols :   Thunderstorms  Fog  Heavy snow  Heavy precipitations  Wind > 20 kt
SIGMETs :     Misc.  Thunderstorms  Icing  Turbulence  Mountain Waves  Volcanic Ashes






- Airport Elevation : 181 ft


ESIB - Satenas AB

CURRENT METAR :
  • 041350Z AUTO 07009KT 9999 OVC035/// M00/M02 Q1032

EXPIRED METARs :
  • 041320Z AUTO 08009KT 9999 OVC035/// M00/M02 Q1032
  • 041250Z AUTO 06008KT 9999 OVC033/// M00/M02 Q1032
  • 041220Z AUTO 06010KT 9999 OVC031/// M00/M02 Q1032
  • 041150Z AUTO 06009KT 9999 OVC031/// M00/M02 Q1032
  • 041120Z AUTO 06009KT 9999 OVC032/// M00/M02 Q1032

Expired Forecast.



MET'MAP, your aeronautical weather chart ! - Copyright ORBIFLY December 2007 - Disclaimer

ORBIFLY MET'MAP TEAM :

Programming & Development : Alexandra Zaïnal
Original concept : Baudouin d'Aumeries
Technical & hardware support : Manuel Goepfert
Assistance : Marc-Olivier Méhu




SOURCES & CREDITS :

   NOAA